createdAt,value
2022-09-01T00:00:03.192Z,93.80
2022-09-01T00:02:30.573Z,95.00
2022-09-01T00:04:58.852Z,94.20
2022-09-01T00:07:29.972Z,94.60
2022-09-01T00:09:56.868Z,95.20
2022-09-01T00:12:25.715Z,94.30
2022-09-01T00:14:53.316Z,94.40
2022-09-01T00:17:20.637Z,94.40
2022-09-01T00:19:47.336Z,94.60
2022-09-01T00:22:14.025Z,95.10
2022-09-01T00:24:41.084Z,95.30
2022-09-01T00:27:07.890Z,95.10
2022-09-01T00:29:36.372Z,95.20
2022-09-01T00:32:03.642Z,95.20
2022-09-01T00:34:30.314Z,95.20
2022-09-01T00:36:57.111Z,95.40
2022-09-01T00:39:23.941Z,95.20
2022-09-01T00:41:51.313Z,95.10
2022-09-01T00:44:23.974Z,95.20
2022-09-01T00:46:55.154Z,94.90
2022-09-01T00:49:41.752Z,95.10
2022-09-01T00:52:18.915Z,95.30
2022-09-01T00:54:50.591Z,95.90
2022-09-01T00:57:17.635Z,95.60
2022-09-01T00:59:54.688Z,95.40
2022-09-01T01:02:22.882Z,95.60
2022-09-01T01:04:49.625Z,95.60
2022-09-01T01:07:16.933Z,95.70
2022-09-01T01:09:45.712Z,95.90
2022-09-01T01:12:13.825Z,96.30
2022-09-01T01:14:41.672Z,95.70
2022-09-01T01:17:12.536Z,95.70
2022-09-01T01:20:02.523Z,95.60
2022-09-01T01:23:02.219Z,95.80
2022-09-01T01:25:32.442Z,95.60
2022-09-01T01:28:05.412Z,95.80
2022-09-01T01:30:33.802Z,96.20
2022-09-01T01:33:01.849Z,95.80
2022-09-01T01:35:31.843Z,96.20
2022-09-01T01:37:58.591Z,96.00
2022-09-01T01:40:25.986Z,96.10
2022-09-01T01:42:54.265Z,96.60
2022-09-01T01:45:23.834Z,96.60
2022-09-01T01:47:56.442Z,96.40
2022-09-01T01:50:35.665Z,96.20
2022-09-01T01:53:11.315Z,96.70
2022-09-01T01:55:39.789Z,96.50
2022-09-01T01:58:12.017Z,96.50
2022-09-01T02:00:39.370Z,96.50
2022-09-01T02:03:07.474Z,96.30
2022-09-01T02:05:36.208Z,96.30
2022-09-01T02:08:06.794Z,96.30
2022-09-01T02:10:36.735Z,96.40
2022-09-01T02:13:07.624Z,96.40
2022-09-01T02:15:43.222Z,96.30
2022-09-01T02:18:16.695Z,96.30
2022-09-01T02:20:44.842Z,96.30
2022-09-01T02:23:12.319Z,96.50
2022-09-01T02:26:05.058Z,96.30
2022-09-01T02:28:34.918Z,96.60
2022-09-01T02:31:03.958Z,96.70
2022-09-01T02:33:32.449Z,96.50
2022-09-01T02:36:02.505Z,96.70
2022-09-01T02:38:29.950Z,96.70
2022-09-01T02:40:58.513Z,96.70
2022-09-01T02:43:28.150Z,96.60
2022-09-01T02:45:59.585Z,96.70
2022-09-01T02:48:32.958Z,96.90
2022-09-01T02:51:02.046Z,96.80
2022-09-01T02:53:34.557Z,96.70
2022-09-01T02:56:02.623Z,96.90
2022-09-01T02:58:40.798Z,96.80
2022-09-01T03:01:20.406Z,96.70
2022-09-01T03:03:51.871Z,96.90
2022-09-01T03:06:24.101Z,96.90
2022-09-01T03:08:53.978Z,96.70
2022-09-01T03:11:21.734Z,96.80
2022-09-01T03:13:48.390Z,96.90
2022-09-01T03:16:16.123Z,96.90
2022-09-01T03:18:42.961Z,97.00
2022-09-01T03:21:14.994Z,97.00
2022-09-01T03:23:42.155Z,96.90
2022-09-01T03:26:08.977Z,97.10
2022-09-01T03:28:37.743Z,97.00
2022-09-01T03:31:04.639Z,97.20
2022-09-01T03:33:32.643Z,97.10
2022-09-01T03:36:00.616Z,97.20
2022-09-01T03:38:28.685Z,97.40
2022-09-01T03:41:02.277Z,97.20
2022-09-01T03:43:35.793Z,97.30
2022-09-01T03:46:03.279Z,97.40
2022-09-01T03:48:32.091Z,97.20
2022-09-01T03:51:03.395Z,97.40
2022-09-01T03:53:33.672Z,97.50
2022-09-01T03:56:01.576Z,97.50
2022-09-01T03:58:28.418Z,97.40
2022-09-01T04:00:58.363Z,97.50
2022-09-01T04:03:31.832Z,97.50
2022-09-01T04:06:00.756Z,97.80
2022-09-01T04:08:32.534Z,97.80
2022-09-01T04:11:05.508Z,97.80
2022-09-01T04:13:36.843Z,97.90
2022-09-01T04:16:10.624Z,97.70
2022-09-01T04:18:40.088Z,97.70
2022-09-01T04:21:08.205Z,97.90
2022-09-01T04:23:37.148Z,97.90
2022-09-01T04:26:14.740Z,98.10
2022-09-01T04:28:51.742Z,97.90
2022-09-01T04:31:21.447Z,97.90
2022-09-01T04:33:52.734Z,97.90
2022-09-01T04:36:23.584Z,97.90
2022-09-01T04:38:54.629Z,97.90
2022-09-01T04:41:23.139Z,97.80
2022-09-01T04:43:52.021Z,97.90
2022-09-01T04:46:21.210Z,98.10
2022-09-01T04:48:48.176Z,97.90
2022-09-01T04:51:16.087Z,98.00
2022-09-01T04:53:48.698Z,97.90
2022-09-01T04:56:20.753Z,97.90
2022-09-01T04:58:47.878Z,98.00
2022-09-01T05:01:21.546Z,97.90
2022-09-01T05:03:56.486Z,98.00
2022-09-01T05:06:23.518Z,97.90
2022-09-01T05:08:52.092Z,98.20
2022-09-01T05:11:19.025Z,98.00
2022-09-01T05:13:48.078Z,98.20
2022-09-01T05:16:24.082Z,98.30
2022-09-01T05:18:55.746Z,98.40
2022-09-01T05:21:26.432Z,98.30
2022-09-01T05:23:54.312Z,98.30
2022-09-01T05:26:24.953Z,98.30
2022-09-01T05:28:55.194Z,98.20
2022-09-01T05:31:23.604Z,98.20
2022-09-01T05:33:51.825Z,98.70
2022-09-01T05:36:21.772Z,98.60
2022-09-01T05:38:49.666Z,98.60
2022-09-01T05:41:19.442Z,98.30
2022-09-01T05:43:49.723Z,98.00
2022-09-01T05:46:21.008Z,97.60
2022-09-01T05:48:49.769Z,97.70
2022-09-01T05:51:42.553Z,97.60
2022-09-01T05:54:09.817Z,97.90
2022-09-01T05:56:43.638Z,98.00
2022-09-01T05:59:28.345Z,98.30
2022-09-01T06:01:56.102Z,98.30
2022-09-01T06:04:25.784Z,98.50
2022-09-01T06:07:06.919Z,98.30
2022-09-01T06:09:40.130Z,98.10
2022-09-01T06:12:07.078Z,97.90
2022-09-01T06:14:34.189Z,98.10
2022-09-01T06:17:00.939Z,98.10
2022-09-01T06:19:28.485Z,98.00
2022-09-01T06:21:56.762Z,98.00
2022-09-01T06:24:23.567Z,97.80
2022-09-01T06:26:50.370Z,97.90
2022-09-01T06:29:17.126Z,98.10
2022-09-01T06:31:51.803Z,97.50
2022-09-01T06:34:19.585Z,97.40
2022-09-01T06:36:49.472Z,97.50
2022-09-01T06:39:19.898Z,97.00
2022-09-01T06:41:52.597Z,96.90
2022-09-01T06:44:22.978Z,97.20
2022-09-01T06:46:51.855Z,97.10
2022-09-01T06:49:21.336Z,96.80
2022-09-01T06:51:51.689Z,96.70
2022-09-01T06:54:21.131Z,96.40
2022-09-01T06:59:35.205Z,96.20
2022-09-01T07:04:51.916Z,95.40
2022-09-01T07:10:18.165Z,95.00
2022-09-01T07:13:06.635Z,95.20
2022-09-01T07:18:27.447Z,94.10
2022-09-01T07:21:38.793Z,94.20
2022-09-01T07:24:07.729Z,93.90
2022-09-01T07:26:30.891Z,93.90
2022-09-01T07:29:01.694Z,93.40
2022-09-01T07:34:41.679Z,93.30
2022-09-01T07:39:56.360Z,92.40
2022-09-01T07:42:30.800Z,92.90
2022-09-01T07:42:30.978Z,96.60
2022-09-01T07:45:28.779Z,92.30
2022-09-01T07:47:56.428Z,92.10
2022-09-01T07:50:38.565Z,92.00
2022-09-01T07:53:06.511Z,91.80
2022-09-01T07:55:33.657Z,91.80
2022-09-01T07:58:00.299Z,91.70
2022-09-01T08:00:31.040Z,91.30
2022-09-01T08:02:57.865Z,91.40
2022-09-01T08:05:27.069Z,91.30
2022-09-01T08:07:54.547Z,90.80
2022-09-01T08:10:21.521Z,90.80
2022-09-01T08:12:56.225Z,90.10
2022-09-01T08:15:41.790Z,90.10
2022-09-01T08:18:14.384Z,89.30
2022-09-01T08:20:47.316Z,87.10
2022-09-01T08:23:18.422Z,87.00
2022-09-01T08:25:48.438Z,85.90
2022-09-01T08:28:16.043Z,85.70
2022-09-01T08:30:52.349Z,83.90
2022-09-01T08:33:20.189Z,82.60
2022-09-01T08:35:48.519Z,82.90
2022-09-01T08:38:15.683Z,83.20
2022-09-01T08:40:49.455Z,82.90
2022-09-01T08:43:23.158Z,81.80
2022-09-01T08:45:53.611Z,82.20
2022-09-01T08:51:30.640Z,81.80
2022-09-01T08:54:04.643Z,81.50
2022-09-01T08:56:37.414Z,80.40
2022-09-01T08:59:09.387Z,79.90
2022-09-01T09:01:48.590Z,80.00
2022-09-01T09:04:37.073Z,80.70
2022-09-01T09:07:27.866Z,79.30
2022-09-01T09:10:05.698Z,79.30
2022-09-01T09:12:52.872Z,76.10
2022-09-01T09:15:25.986Z,76.10
2022-09-01T09:18:39.213Z,78.00
2022-09-01T09:21:19.460Z,77.40
2022-09-01T09:23:50.574Z,79.10
2022-09-01T09:26:22.263Z,79.10
2022-09-01T09:28:50.010Z,79.30
2022-09-01T09:31:35.898Z,80.60
2022-09-01T09:34:04.132Z,81.10
2022-09-01T09:36:36.081Z,81.80
2022-09-01T09:39:07.079Z,82.10
2022-09-01T09:41:34.278Z,81.30
2022-09-01T09:44:26.077Z,81.50
2022-09-01T09:46:53.146Z,81.30
2022-09-01T09:49:34.784Z,79.50
2022-09-01T09:52:10.696Z,79.90
2022-09-01T09:55:09.207Z,78.50
2022-09-01T09:57:39.611Z,76.50
2022-09-01T10:00:30.825Z,74.80
2022-09-01T10:03:04.653Z,76.20
2022-09-01T10:05:48.951Z,76.60
2022-09-01T10:08:28.399Z,77.10
2022-09-01T10:10:57.887Z,77.00
2022-09-01T10:13:29.487Z,77.50
2022-09-01T10:16:05.388Z,76.20
2022-09-01T10:18:41.585Z,75.80
2022-09-01T10:21:34.576Z,75.30
2022-09-01T10:24:26.990Z,75.20
2022-09-01T10:27:25.015Z,73.80
2022-09-01T10:30:18.383Z,74.00
2022-09-01T10:32:56.056Z,73.00
2022-09-01T10:35:28.200Z,72.90
2022-09-01T10:37:58.129Z,72.90
2022-09-01T10:40:31.058Z,74.20
2022-09-01T10:43:19.664Z,74.40
2022-09-01T10:45:51.233Z,74.00
2022-09-01T10:48:31.999Z,73.60
2022-09-01T10:51:19.065Z,72.40
2022-09-01T10:53:49.683Z,71.90
2022-09-01T10:56:45.213Z,72.40
2022-09-01T10:59:32.771Z,72.30
2022-09-01T11:02:27.623Z,72.50
2022-09-01T11:04:55.374Z,71.10
2022-09-01T11:07:44.524Z,71.90
2022-09-01T11:10:32.419Z,71.50
2022-09-01T11:13:10.373Z,71.40
2022-09-01T11:15:40.492Z,72.00
2022-09-01T11:18:17.285Z,73.00
2022-09-01T11:20:45.963Z,74.20
2022-09-01T11:23:31.023Z,75.80
2022-09-01T11:26:21.556Z,76.70
2022-09-01T11:28:48.445Z,76.10
2022-09-01T11:31:27.017Z,76.40
2022-09-01T11:34:03.810Z,76.10
2022-09-01T11:36:37.703Z,74.30
2022-09-01T11:39:12.475Z,75.30
2022-09-01T11:41:39.970Z,74.50
2022-09-01T11:44:22.402Z,74.10
2022-09-01T11:46:52.130Z,73.60
2022-09-01T11:49:28.108Z,73.30
2022-09-01T11:51:56.577Z,73.00
2022-09-01T11:54:24.511Z,72.60
2022-09-01T11:56:51.942Z,72.80
2022-09-01T11:59:36.748Z,73.30
2022-09-01T12:02:05.286Z,73.30
2022-09-01T12:04:36.687Z,72.80
2022-09-01T12:07:11.678Z,73.50
2022-09-01T12:09:48.047Z,73.60
2022-09-01T12:12:36.030Z,73.90
2022-09-01T12:15:08.696Z,74.00
2022-09-01T12:17:36.301Z,73.60
2022-09-01T12:20:28.112Z,73.80
2022-09-01T12:22:56.521Z,74.00
2022-09-01T12:25:30.198Z,73.40
2022-09-01T12:27:59.262Z,73.30
2022-09-01T12:30:27.039Z,73.80
2022-09-01T12:33:22.741Z,73.60
2022-09-01T12:35:42.022Z,74.00
2022-09-01T12:38:20.733Z,73.90
2022-09-01T12:40:55.791Z,73.00
2022-09-01T12:43:35.205Z,72.70
2022-09-01T12:46:04.707Z,73.20
2022-09-01T12:48:39.624Z,73.70
2022-09-01T12:51:30.974Z,73.80
2022-09-01T12:54:04.522Z,73.50
2022-09-01T12:56:37.935Z,73.10
2022-09-01T12:59:15.724Z,72.00
2022-09-01T13:01:44.972Z,72.00
2022-09-01T13:04:23.739Z,72.30
2022-09-01T13:06:51.888Z,72.80
2022-09-01T13:09:18.747Z,72.50
2022-09-01T13:14:35.039Z,72.30
2022-09-01T13:17:02.223Z,72.30
2022-09-01T13:19:30.274Z,72.60
2022-09-01T13:21:57.585Z,73.20
2022-09-01T13:24:28.557Z,73.40
2022-09-01T13:29:43.891Z,74.80
2022-09-01T13:32:18.265Z,75.00
2022-09-01T13:34:46.593Z,75.30
2022-09-01T13:37:13.318Z,75.40
2022-09-01T13:39:40.203Z,76.00
2022-09-01T13:42:07.119Z,75.30
2022-09-01T13:44:35.421Z,75.40
2022-09-01T13:52:35.558Z,75.20
2022-09-01T13:55:02.201Z,74.50
2022-09-01T13:57:31.020Z,73.50
2022-09-01T14:00:03.747Z,73.90
2022-09-01T14:02:30.523Z,73.00
2022-09-01T14:04:57.399Z,72.00
2022-09-01T14:07:24.056Z,72.20
2022-09-01T14:09:50.719Z,71.30
2022-09-01T14:12:17.394Z,71.10
2022-09-01T14:17:30.883Z,70.00
2022-09-01T14:19:57.567Z,70.30
2022-09-01T14:22:24.336Z,70.00
2022-09-01T14:24:51.056Z,69.90
2022-09-01T14:27:17.826Z,69.60
2022-09-01T14:29:50.434Z,69.10
2022-09-01T14:32:26.818Z,69.00
2022-09-01T14:34:54.366Z,69.10
2022-09-01T14:37:21.603Z,70.50
2022-09-01T14:39:53.698Z,70.20
2022-09-01T14:42:21.118Z,70.10
2022-09-01T14:44:48.328Z,69.20
2022-09-01T14:47:19.321Z,69.50
2022-09-01T14:49:47.502Z,69.40
2022-09-01T14:52:14.311Z,68.70
2022-09-01T14:54:44.703Z,68.70
2022-09-01T14:59:59.351Z,67.10
2022-09-01T15:02:28.932Z,67.90
2022-09-01T15:04:56.730Z,68.50
2022-09-01T15:07:23.449Z,69.10
2022-09-01T15:09:50.239Z,69.60
2022-09-01T15:12:17.002Z,69.70
2022-09-01T15:14:43.698Z,69.10
2022-09-01T15:17:10.564Z,70.30
2022-09-01T15:19:37.260Z,72.00
2022-09-01T15:22:04.543Z,73.10
2022-09-01T15:24:31.215Z,73.80
2022-09-01T15:26:57.927Z,74.30
2022-09-01T15:29:24.690Z,74.70
2022-09-01T15:31:51.460Z,74.60
2022-09-01T15:34:18.968Z,74.70
2022-09-01T15:36:45.649Z,74.50
2022-09-01T15:39:12.805Z,75.00
2022-09-01T15:41:39.544Z,75.30
2022-09-01T15:44:07.701Z,75.30
2022-09-01T15:46:36.381Z,75.30
2022-09-01T15:49:06.351Z,75.20
2022-09-01T15:51:42.306Z,74.80
2022-09-01T15:54:12.153Z,72.60
2022-09-01T15:56:38.885Z,70.30
2022-09-01T15:59:07.873Z,68.70
2022-09-01T16:01:38.987Z,68.40
2022-09-01T16:04:08.298Z,68.20
2022-09-01T16:06:35.624Z,69.60
2022-09-01T16:09:02.339Z,71.20
2022-09-01T16:11:29.086Z,71.50
2022-09-01T16:13:55.979Z,70.30
2022-09-01T16:16:41.188Z,68.00
2022-09-01T16:19:16.665Z,68.90
2022-09-01T16:21:49.684Z,71.10
2022-09-01T16:24:16.576Z,73.00
2022-09-01T16:26:48.091Z,73.80
2022-09-01T16:29:33.035Z,74.20
2022-09-01T16:31:59.838Z,74.50
2022-09-01T16:34:28.458Z,75.00
2022-09-01T16:37:25.667Z,75.00
2022-09-01T16:40:01.421Z,74.90
2022-09-01T16:42:36.732Z,75.50
2022-09-01T16:45:21.919Z,75.20
2022-09-01T16:48:32.978Z,75.40
2022-09-01T16:51:04.575Z,75.50
2022-09-01T16:54:01.479Z,75.20
2022-09-01T16:56:32.924Z,75.20
2022-09-01T16:59:41.766Z,75.30
2022-09-01T17:02:23.983Z,75.40
2022-09-01T17:05:14.036Z,75.60
2022-09-01T17:08:06.858Z,75.70
2022-09-01T17:10:53.123Z,75.70
2022-09-01T17:13:32.472Z,75.40
2022-09-01T17:16:12.643Z,75.60
2022-09-01T17:18:44.372Z,76.30
2022-09-01T17:21:20.674Z,76.10
2022-09-01T17:24:24.498Z,76.80
2022-09-01T17:26:53.059Z,76.90
2022-09-01T17:29:35.417Z,76.30
2022-09-01T17:32:48.124Z,76.70
2022-09-01T17:35:18.086Z,76.80
2022-09-01T17:38:13.920Z,77.00
2022-09-01T17:41:23.166Z,77.00
2022-09-01T17:44:10.965Z,76.80
2022-09-01T17:46:45.916Z,77.40
2022-09-01T17:49:30.560Z,77.20
2022-09-01T17:51:57.244Z,77.30
2022-09-01T17:54:50.259Z,77.40
2022-09-01T17:57:25.936Z,77.00
2022-09-01T18:00:23.701Z,78.70
2022-09-01T18:03:34.557Z,77.10
2022-09-01T18:06:09.891Z,77.60
2022-09-01T18:08:51.859Z,77.40
2022-09-01T18:11:21.344Z,79.20
2022-09-01T18:14:14.377Z,77.70
2022-09-01T18:17:02.738Z,77.90
2022-09-01T18:19:38.752Z,78.60
2022-09-01T18:22:13.310Z,78.40
2022-09-01T18:24:54.934Z,78.90
2022-09-01T18:27:24.125Z,78.90
2022-09-01T18:29:52.219Z,79.20
2022-09-01T18:32:25.599Z,79.20
2022-09-01T18:35:18.931Z,79.90
2022-09-01T18:37:54.416Z,79.30
2022-09-01T18:40:29.527Z,79.30
2022-09-01T18:43:28.164Z,80.00
2022-09-01T18:46:10.979Z,80.10
2022-09-01T18:49:09.269Z,80.60
2022-09-01T18:51:44.246Z,81.40
2022-09-01T18:54:13.639Z,80.30
2022-09-01T18:57:07.588Z,80.60
2022-09-01T18:59:55.626Z,80.40
2022-09-01T19:03:10.649Z,80.90
2022-09-01T19:06:01.751Z,81.20
2022-09-01T19:09:05.847Z,82.20
2022-09-01T19:11:35.404Z,82.30
2022-09-01T19:14:45.220Z,81.30
2022-09-01T19:17:29.662Z,81.30
2022-09-01T19:20:11.559Z,81.50
2022-09-01T19:22:57.064Z,82.90
2022-09-01T19:25:39.531Z,82.20
2022-09-01T19:28:32.913Z,82.70
2022-09-01T19:31:17.927Z,82.60
2022-09-01T19:33:48.961Z,82.80
2022-09-01T19:36:25.612Z,83.80
2022-09-01T19:38:53.233Z,83.00
2022-09-01T19:41:35.262Z,83.40
2022-09-01T19:44:14.590Z,83.60
2022-09-01T19:46:47.124Z,84.70
2022-09-01T19:49:37.300Z,83.90
2022-09-01T19:52:15.205Z,86.90
2022-09-01T19:54:54.133Z,86.50
2022-09-01T19:57:32.412Z,86.50
2022-09-01T20:00:20.765Z,87.00
2022-09-01T20:03:01.074Z,88.10
2022-09-01T20:05:35.645Z,88.20
2022-09-01T20:08:13.138Z,88.40
2022-09-01T20:10:56.548Z,88.30
2022-09-01T20:13:43.812Z,89.60
2022-09-01T20:16:38.482Z,89.50
2022-09-01T20:19:18.435Z,89.70
2022-09-01T20:21:47.855Z,89.80
2022-09-01T20:24:38.485Z,90.00
2022-09-01T20:27:35.108Z,90.00
2022-09-01T20:30:05.499Z,90.40
2022-09-01T20:32:53.728Z,90.20
2022-09-01T20:35:57.223Z,90.30
2022-09-01T20:39:11.139Z,90.50
2022-09-01T20:41:59.544Z,90.60
2022-09-01T20:44:31.565Z,90.50
2022-09-01T20:46:58.314Z,90.70
2022-09-01T20:49:25.054Z,91.10
2022-09-01T20:52:50.296Z,91.10
2022-09-01T20:55:26.014Z,91.40
2022-09-01T20:58:16.388Z,91.40
2022-09-01T21:01:19.357Z,91.20
2022-09-01T21:04:31.229Z,91.70
2022-09-01T21:07:02.834Z,91.80
2022-09-01T21:09:45.065Z,91.60
2022-09-01T21:12:30.905Z,91.90
2022-09-01T21:15:13.361Z,91.60
2022-09-01T21:17:50.809Z,91.60
2022-09-01T21:20:30.377Z,91.80
2022-09-01T21:22:57.146Z,91.80
2022-09-01T21:25:24.595Z,91.90
2022-09-01T21:27:55.768Z,92.10
2022-09-01T21:30:24.075Z,92.20
2022-09-01T21:32:54.142Z,92.20
2022-09-01T21:35:22.308Z,92.00
2022-09-01T21:37:49.524Z,92.20
2022-09-01T21:40:17.731Z,92.20
2022-09-01T21:42:54.627Z,92.30
2022-09-01T21:45:22.274Z,92.40
2022-09-01T21:47:50.716Z,92.30
2022-09-01T21:50:20.014Z,92.20
2022-09-01T21:52:47.064Z,92.60
2022-09-01T21:55:16.635Z,92.50
2022-09-01T21:57:45.963Z,92.80
2022-09-01T22:00:17.258Z,92.70
2022-09-01T22:02:45.324Z,92.70
2022-09-01T22:05:13.334Z,92.90
2022-09-01T22:07:43.113Z,93.20
2022-09-01T22:10:13.275Z,93.00
2022-09-01T22:12:42.041Z,92.90
2022-09-01T22:15:10.799Z,93.20
2022-09-01T22:17:37.897Z,93.00
2022-09-01T22:20:07.219Z,92.90
2022-09-01T22:22:34.638Z,92.80
2022-09-01T22:25:08.881Z,93.40
2022-09-01T22:27:35.710Z,93.00
2022-09-01T22:30:04.041Z,93.00
2022-09-01T22:32:33.124Z,93.20
2022-09-01T22:35:01.663Z,93.00
2022-09-01T22:37:28.583Z,93.20
2022-09-01T22:39:55.714Z,93.40
2022-09-01T22:42:22.428Z,93.00
2022-09-01T22:44:49.116Z,92.70
2022-09-01T22:47:15.837Z,92.80
2022-09-01T22:49:42.594Z,92.70
2022-09-01T22:52:09.346Z,92.90
2022-09-01T22:54:36.058Z,92.60
2022-09-01T22:57:03.143Z,92.60
2022-09-01T22:59:29.822Z,92.30
2022-09-01T23:01:56.692Z,92.70
2022-09-01T23:04:24.957Z,93.00
2022-09-01T23:06:53.045Z,92.90
2022-09-01T23:09:20.837Z,93.00
2022-09-01T23:11:47.955Z,92.70
2022-09-01T23:14:14.657Z,93.00
2022-09-01T23:16:41.957Z,92.80
2022-09-01T23:19:08.855Z,92.80
2022-09-01T23:21:37.230Z,93.10
2022-09-01T23:24:04.439Z,93.30
2022-09-01T23:26:32.532Z,92.80
2022-09-01T23:29:00.207Z,93.20
2022-09-01T23:31:29.656Z,92.70
2022-09-01T23:33:57.053Z,92.70
2022-09-01T23:36:25.838Z,92.70
2022-09-01T23:38:52.680Z,92.80
2022-09-01T23:41:25.415Z,92.40
2022-09-01T23:43:52.953Z,92.70
2022-09-01T23:46:25.494Z,92.60
2022-09-01T23:48:53.081Z,92.50
2022-09-01T23:51:20.783Z,92.90
2022-09-01T23:53:48.039Z,92.80
2022-09-01T23:56:20.595Z,92.80
2022-09-01T23:58:48.785Z,93.30
